createdAt,value
2022-09-16T00:01:25.234Z,2.10
2022-09-16T00:04:27.558Z,2.03
2022-09-16T00:07:30.943Z,2.17
2022-09-16T00:10:32.828Z,1.90
2022-09-16T00:13:35.058Z,1.97
2022-09-16T00:16:37.121Z,2.20
2022-09-16T00:19:39.443Z,2.13
2022-09-16T00:22:41.338Z,2.30
2022-09-16T00:25:43.398Z,2.30
2022-09-16T00:28:50.293Z,2.00
2022-09-16T00:31:52.405Z,2.23
2022-09-16T00:34:54.378Z,2.83
2022-09-16T00:37:56.528Z,1.97
2022-09-16T00:40:58.458Z,2.20
2022-09-16T00:44:03.952Z,2.17
2022-09-16T00:47:06.617Z,2.37
2022-09-16T00:50:36.737Z,2.10
2022-09-16T00:53:43.154Z,2.17
2022-09-16T00:56:47.946Z,2.67
2022-09-16T00:59:53.882Z,2.83
2022-09-16T01:02:56.009Z,2.70
2022-09-16T01:05:58.009Z,3.10
2022-09-16T01:09:00.643Z,3.20
2022-09-16T01:12:02.703Z,2.60
2022-09-16T01:15:07.022Z,2.53
2022-09-16T01:18:25.489Z,2.90
2022-09-16T01:21:42.544Z,3.17
2022-09-16T01:25:11.362Z,3.40
2022-09-16T01:28:38.033Z,3.50
2022-09-16T01:31:50.540Z,3.47
2022-09-16T01:35:20.627Z,2.67
2022-09-16T01:38:27.588Z,2.70
2022-09-16T01:41:37.924Z,3.33
2022-09-16T01:44:46.932Z,3.63
2022-09-16T01:47:56.538Z,3.43
2022-09-16T01:51:42.311Z,3.83
2022-09-16T01:55:18.774Z,3.77
2022-09-16T01:58:29.764Z,4.07
2022-09-16T02:01:37.732Z,3.60
2022-09-16T02:04:59.857Z,3.80
2022-09-16T02:08:11.668Z,3.17
2022-09-16T02:11:15.892Z,3.63
2022-09-16T02:15:07.462Z,2.97
2022-09-16T02:21:37.474Z,3.60
2022-09-16T02:24:55.281Z,3.77
2022-09-16T02:27:57.916Z,3.40
2022-09-16T02:31:02.912Z,3.10
2022-09-16T02:34:13.850Z,3.13
2022-09-16T02:37:20.218Z,3.63
2022-09-16T02:40:48.895Z,3.27
2022-09-16T02:43:50.871Z,3.40
2022-09-16T02:47:03.973Z,3.60
2022-09-16T02:50:29.632Z,3.30
2022-09-16T02:53:47.467Z,4.10
2022-09-16T02:56:49.606Z,4.30
2022-09-16T02:59:51.820Z,12.93
2022-09-16T03:02:54.671Z,4.07
2022-09-16T03:06:04.380Z,4.10
2022-09-16T03:09:09.018Z,3.90
2022-09-16T03:12:25.892Z,3.03
2022-09-16T03:15:51.664Z,3.60
2022-09-16T03:19:38.098Z,3.43
2022-09-16T03:23:14.433Z,4.00
2022-09-16T03:26:38.177Z,4.00
2022-09-16T03:30:08.008Z,3.57
2022-09-16T03:33:17.452Z,3.70
2022-09-16T03:36:21.099Z,3.17
2022-09-16T03:39:23.283Z,3.40
2022-09-16T03:42:26.190Z,3.70
2022-09-16T03:45:28.211Z,4.20
2022-09-16T03:48:30.097Z,3.77
2022-09-16T03:51:32.530Z,3.77
2022-09-16T03:54:36.146Z,3.10
2022-09-16T03:57:40.337Z,3.80
2022-09-16T04:00:42.283Z,3.10
2022-09-16T04:03:44.538Z,3.40
2022-09-16T04:06:46.432Z,3.50
2022-09-16T04:09:48.346Z,3.17
2022-09-16T04:12:50.266Z,3.50
2022-09-16T04:15:52.503Z,3.70
2022-09-16T04:18:54.542Z,3.40
2022-09-16T04:21:56.511Z,3.90
2022-09-16T04:24:58.521Z,3.30
2022-09-16T04:28:00.737Z,3.70
2022-09-16T04:31:08.198Z,3.57
2022-09-16T04:37:44.592Z,3.97
2022-09-16T04:44:27.274Z,3.70
2022-09-16T04:47:30.127Z,4.13
2022-09-16T04:50:32.036Z,3.87
2022-09-16T04:56:51.137Z,3.50
2022-09-16T04:59:53.081Z,3.30
2022-09-16T05:02:55.345Z,4.10
2022-09-16T05:06:06.283Z,3.77
2022-09-16T05:09:08.496Z,3.90
2022-09-16T05:12:11.362Z,3.63
2022-09-16T05:15:13.666Z,3.33
2022-09-16T05:18:15.572Z,3.80
2022-09-16T05:21:21.711Z,3.30
2022-09-16T05:24:23.652Z,3.67
2022-09-16T05:27:28.192Z,3.30
2022-09-16T05:30:30.648Z,3.47
2022-09-16T05:33:32.866Z,3.60
2022-09-16T05:36:37.856Z,3.77
2022-09-16T05:39:39.957Z,3.70
2022-09-16T05:42:43.241Z,4.50
2022-09-16T05:49:10.728Z,3.70
2022-09-16T05:52:14.697Z,4.00
2022-09-16T05:55:17.190Z,4.00
2022-09-16T05:58:19.106Z,4.27
2022-09-16T06:01:32.496Z,4.17
2022-09-16T06:04:35.041Z,4.30
2022-09-16T06:07:37.131Z,3.93
2022-09-16T06:10:40.784Z,4.00
2022-09-16T06:13:42.806Z,3.83
2022-09-16T06:16:45.277Z,4.40
2022-09-16T06:19:47.193Z,4.20
2022-09-16T06:22:49.096Z,4.00
2022-09-16T06:26:03.507Z,4.50
2022-09-16T06:29:06.551Z,4.27
2022-09-16T06:32:08.717Z,4.33
2022-09-16T06:35:10.622Z,4.70
2022-09-16T06:38:13.371Z,4.10
2022-09-16T06:41:16.523Z,4.33
2022-09-16T06:44:18.549Z,4.60
2022-09-16T06:47:20.591Z,4.00
2022-09-16T06:50:22.598Z,4.30
2022-09-16T06:53:24.531Z,3.43
2022-09-16T06:56:27.056Z,4.07
2022-09-16T06:59:29.022Z,4.13
2022-09-16T07:02:31.521Z,3.47
2022-09-16T07:05:33.787Z,4.33
2022-09-16T07:08:37.061Z,3.93
2022-09-16T07:11:41.207Z,3.80
2022-09-16T07:14:43.117Z,4.23
2022-09-16T07:17:48.250Z,3.83
2022-09-16T07:20:50.572Z,4.40
2022-09-16T07:23:55.447Z,4.40
2022-09-16T07:26:58.004Z,4.07
2022-09-16T07:30:00.407Z,4.40
2022-09-16T07:33:02.654Z,4.20
2022-09-16T07:36:05.691Z,4.50
2022-09-16T07:39:08.538Z,4.67
2022-09-16T07:42:10.864Z,4.43
2022-09-16T07:45:13.185Z,4.53
2022-09-16T07:48:15.176Z,4.40
2022-09-16T07:51:31.430Z,4.30
2022-09-16T07:54:39.332Z,3.90
2022-09-16T07:57:41.677Z,4.20
2022-09-16T08:00:44.331Z,3.80
2022-09-16T08:03:48.913Z,3.80
2022-09-16T08:06:50.893Z,3.63
2022-09-16T08:09:52.901Z,3.77
2022-09-16T08:12:56.113Z,4.53
2022-09-16T08:16:04.191Z,3.43
2022-09-16T08:19:08.782Z,3.40
2022-09-16T08:22:11.588Z,3.40
2022-09-16T08:25:13.474Z,3.90
2022-09-16T08:28:17.036Z,3.23
2022-09-16T08:35:00.629Z,3.30
2022-09-16T08:38:03.372Z,3.33
2022-09-16T08:41:18.991Z,3.47
2022-09-16T08:44:40.908Z,3.53
2022-09-16T08:48:01.745Z,2.63
2022-09-16T08:51:06.294Z,2.83
2022-09-16T08:54:14.453Z,3.20
2022-09-16T08:57:20.837Z,2.50
2022-09-16T09:00:23.079Z,2.53
2022-09-16T09:03:55.645Z,2.33
2022-09-16T09:07:17.094Z,2.60
2022-09-16T09:10:54.842Z,2.13
2022-09-16T09:14:10.111Z,2.47
2022-09-16T09:17:48.330Z,2.42
2022-09-16T09:21:17.713Z,1.88
2022-09-16T09:24:50.071Z,2.20
2022-09-16T09:28:21.853Z,1.90
2022-09-16T09:31:35.679Z,1.88
2022-09-16T09:34:57.085Z,2.00
2022-09-16T09:37:59.074Z,2.13
2022-09-16T09:41:16.668Z,2.08
2022-09-16T09:44:39.659Z,2.33
2022-09-16T09:47:49.542Z,2.45
2022-09-16T09:50:53.144Z,2.60
2022-09-16T09:54:00.805Z,1.92
2022-09-16T09:57:20.955Z,2.53
2022-09-16T10:00:23.204Z,2.08
2022-09-16T10:03:26.950Z,2.10
2022-09-16T10:06:35.350Z,2.75
2022-09-16T10:09:37.464Z,2.58
2022-09-16T10:12:39.721Z,2.53
2022-09-16T10:15:42.783Z,2.10
2022-09-16T10:18:45.429Z,2.20
2022-09-16T10:21:53.636Z,1.98
2022-09-16T10:25:08.597Z,2.38
2022-09-16T10:28:39.273Z,2.03
2022-09-16T10:31:43.302Z,2.17
2022-09-16T10:34:46.316Z,2.72
2022-09-16T10:38:13.927Z,2.50
2022-09-16T10:41:23.553Z,2.58
2022-09-16T10:44:31.910Z,3.03
2022-09-16T10:47:36.541Z,2.85
2022-09-16T10:50:38.859Z,2.80
2022-09-16T10:53:45.376Z,3.03
2022-09-16T10:56:50.752Z,2.55
2022-09-16T11:00:44.989Z,3.08
2022-09-16T11:04:04.426Z,3.95
2022-09-16T11:07:37.227Z,3.78
2022-09-16T11:10:51.601Z,4.20
2022-09-16T11:14:09.391Z,3.75
2022-09-16T11:17:48.727Z,4.07
2022-09-16T11:21:03.197Z,4.18
2022-09-16T11:24:46.024Z,4.28
2022-09-16T11:28:12.818Z,3.88
2022-09-16T11:31:41.150Z,3.17
2022-09-16T11:35:08.613Z,3.97
2022-09-16T11:38:14.039Z,4.10
2022-09-16T11:41:49.582Z,4.18
2022-09-16T11:45:20.869Z,4.10
2022-09-16T11:48:29.996Z,3.78
2022-09-16T11:52:33.633Z,3.95
2022-09-16T11:55:47.578Z,4.20
2022-09-16T11:58:54.402Z,4.30
2022-09-16T12:02:08.431Z,5.30
2022-09-16T12:05:37.153Z,4.57
2022-09-16T12:08:51.076Z,4.75
2022-09-16T12:11:57.089Z,4.85
2022-09-16T12:15:07.267Z,5.93
2022-09-16T12:18:36.197Z,5.80
2022-09-16T12:21:46.605Z,6.03
2022-09-16T12:24:51.602Z,5.72
2022-09-16T12:28:16.818Z,4.97
2022-09-16T12:31:35.768Z,5.07
2022-09-16T12:34:43.382Z,5.35
2022-09-16T12:37:49.276Z,5.30
2022-09-16T12:41:04.421Z,5.07
2022-09-16T12:44:47.693Z,6.35
2022-09-16T12:48:15.047Z,6.40
2022-09-16T12:51:39.481Z,5.32
2022-09-16T12:55:15.813Z,4.55
2022-09-16T12:58:36.826Z,5.40
2022-09-16T13:01:48.652Z,6.10
2022-09-16T13:05:48.579Z,4.72
2022-09-16T13:08:51.051Z,5.93
2022-09-16T13:12:39.170Z,6.00
2022-09-16T13:15:56.234Z,5.57
2022-09-16T13:19:26.861Z,5.85
2022-09-16T13:22:41.437Z,5.05
2022-09-16T13:25:51.183Z,5.40
2022-09-16T13:28:53.387Z,4.75
2022-09-16T13:35:55.238Z,4.88
2022-09-16T13:39:06.183Z,4.57
2022-09-16T13:42:20.627Z,4.60
2022-09-16T13:46:01.715Z,4.70
2022-09-16T13:49:11.084Z,4.00
2022-09-16T13:52:40.211Z,4.38
2022-09-16T14:04:37.172Z,5.23
2022-09-16T14:07:56.116Z,4.03
2022-09-16T14:11:19.827Z,3.70
2022-09-16T14:14:46.474Z,4.33
2022-09-16T14:17:51.492Z,4.10
2022-09-16T14:20:56.357Z,5.97
2022-09-16T14:24:21.301Z,4.50
2022-09-16T14:27:39.919Z,4.67
2022-09-16T14:30:59.142Z,6.43
2022-09-16T14:34:04.845Z,7.73
2022-09-16T14:37:06.931Z,8.80
2022-09-16T14:40:17.608Z,7.33
2022-09-16T14:43:21.274Z,6.23
2022-09-16T14:46:23.486Z,5.87
2022-09-16T14:49:26.347Z,3.67
2022-09-16T14:52:30.287Z,2.17
2022-09-16T14:55:36.411Z,1.50
2022-09-16T14:58:38.294Z,1.33
2022-09-16T15:01:40.708Z,1.53
2022-09-16T15:04:46.887Z,1.50
2022-09-16T15:08:09.985Z,1.70
2022-09-16T15:11:24.469Z,1.63
2022-09-16T15:14:39.237Z,1.40
2022-09-16T15:17:41.503Z,1.43
2022-09-16T15:20:51.932Z,1.23
2022-09-16T15:23:57.293Z,1.50
2022-09-16T15:27:00.519Z,1.80
2022-09-16T15:30:05.867Z,1.90
2022-09-16T15:33:29.963Z,1.57
2022-09-16T15:36:42.097Z,1.83
2022-09-16T15:39:44.321Z,1.77
2022-09-16T15:42:47.026Z,1.80
2022-09-16T15:46:04.521Z,2.00
2022-09-16T15:49:12.027Z,1.93
2022-09-16T15:52:14.150Z,2.03
2022-09-16T15:55:36.636Z,1.80
2022-09-16T15:58:40.532Z,2.00
2022-09-16T16:01:53.460Z,1.93
2022-09-16T16:05:11.227Z,1.93
2022-09-16T16:08:44.828Z,2.20
2022-09-16T16:11:47.902Z,2.20
2022-09-16T16:14:49.773Z,2.50
2022-09-16T16:17:52.355Z,1.93
2022-09-16T16:20:54.743Z,2.37
2022-09-16T16:23:57.145Z,2.17
2022-09-16T16:26:59.157Z,2.07
2022-09-16T16:30:01.113Z,2.30
2022-09-16T16:33:02.992Z,2.13
2022-09-16T16:36:05.533Z,2.07
2022-09-16T16:39:07.347Z,2.00
2022-09-16T16:42:14.023Z,2.50
2022-09-16T16:45:16.831Z,2.37
2022-09-16T16:48:19.112Z,1.73
2022-09-16T16:51:20.928Z,1.70
2022-09-16T16:54:23.194Z,2.10
2022-09-16T16:57:25.571Z,1.97
2022-09-16T17:00:28.746Z,2.27
2022-09-16T17:03:30.620Z,2.60
2022-09-16T17:06:33.267Z,2.30
2022-09-16T17:09:35.702Z,1.90
2022-09-16T17:12:38.046Z,2.00
2022-09-16T17:15:39.980Z,2.23
2022-09-16T17:18:42.800Z,2.10
2022-09-16T17:21:46.267Z,2.10
2022-09-16T17:24:48.987Z,2.10
2022-09-16T17:27:50.832Z,2.37
2022-09-16T17:30:52.929Z,2.20
2022-09-16T17:33:56.623Z,2.13
2022-09-16T17:36:58.842Z,2.17
2022-09-16T17:40:00.737Z,2.30
2022-09-16T17:43:02.801Z,2.30
2022-09-16T17:46:07.531Z,2.10
2022-09-16T17:49:17.823Z,2.37
2022-09-16T17:52:19.711Z,2.10
2022-09-16T17:55:21.642Z,2.27
2022-09-16T17:58:26.207Z,2.17
2022-09-16T18:01:30.986Z,2.10
2022-09-16T18:04:33.067Z,2.17
2022-09-16T18:07:35.054Z,2.30
2022-09-16T18:10:36.967Z,2.03
2022-09-16T18:13:40.025Z,2.40
2022-09-16T18:16:42.567Z,2.23
2022-09-16T18:19:44.708Z,1.77
2022-09-16T18:22:47.377Z,2.40
2022-09-16T18:25:50.182Z,2.50
2022-09-16T18:29:10.580Z,2.90
2022-09-16T18:32:13.252Z,2.40
2022-09-16T18:35:15.223Z,2.27
2022-09-16T18:38:18.137Z,2.47
2022-09-16T18:41:34.270Z,2.43
2022-09-16T18:45:08.042Z,2.50
2022-09-16T18:48:15.962Z,2.13
2022-09-16T18:51:27.881Z,2.27
2022-09-16T18:54:34.868Z,2.27
2022-09-16T18:57:42.285Z,1.90
2022-09-16T19:00:50.059Z,1.80
2022-09-16T19:03:56.308Z,1.80
2022-09-16T19:07:08.583Z,2.10
2022-09-16T19:10:10.674Z,2.07
2022-09-16T19:13:13.061Z,2.60
2022-09-16T19:16:15.173Z,2.60
2022-09-16T19:19:17.232Z,2.47
2022-09-16T19:22:19.235Z,2.70
2022-09-16T19:25:21.189Z,4.10
2022-09-16T19:28:23.393Z,1.80
2022-09-16T19:31:25.567Z,2.10
2022-09-16T19:34:27.500Z,2.50
2022-09-16T19:37:30.028Z,2.43
2022-09-16T19:40:32.428Z,2.40
2022-09-16T19:43:34.903Z,2.90
2022-09-16T19:46:38.260Z,2.73
2022-09-16T19:49:40.241Z,2.20
2022-09-16T19:52:42.078Z,2.43
2022-09-16T19:55:44.162Z,2.40
2022-09-16T19:58:45.987Z,2.10
2022-09-16T20:01:48.345Z,2.07
2022-09-16T20:04:50.868Z,2.53
2022-09-16T20:07:53.046Z,2.63
2022-09-16T20:10:54.975Z,2.57
2022-09-16T20:14:05.899Z,2.13
2022-09-16T20:17:08.089Z,2.20
2022-09-16T20:20:10.089Z,2.20
2022-09-16T20:23:11.884Z,2.40
2022-09-16T20:26:19.802Z,2.63
2022-09-16T20:29:21.874Z,2.70
2022-09-16T20:32:24.056Z,2.03
2022-09-16T20:35:25.984Z,2.97
2022-09-16T20:38:28.256Z,2.33
2022-09-16T20:41:32.497Z,2.47
2022-09-16T20:44:34.524Z,2.33
2022-09-16T20:47:36.412Z,2.30
2022-09-16T20:50:40.165Z,2.27
2022-09-16T20:53:43.423Z,2.50
2022-09-16T20:56:47.706Z,2.37
2022-09-16T20:59:49.813Z,2.50
2022-09-16T21:02:54.212Z,2.27
2022-09-16T21:06:01.297Z,1.87
2022-09-16T21:09:07.160Z,2.83
2022-09-16T21:12:09.031Z,2.20
2022-09-16T21:15:11.432Z,2.40
2022-09-16T21:18:13.344Z,2.30
2022-09-16T21:21:18.068Z,2.00
2022-09-16T21:24:19.938Z,2.43
2022-09-16T21:27:22.011Z,1.83
2022-09-16T21:30:23.807Z,2.13
2022-09-16T21:33:27.447Z,2.13
2022-09-16T21:36:30.049Z,2.50
2022-09-16T21:39:32.596Z,2.10
2022-09-16T21:42:36.154Z,2.40
2022-09-16T21:45:46.721Z,1.97
2022-09-16T21:48:50.488Z,2.20
2022-09-16T21:51:53.875Z,2.37
2022-09-16T21:54:56.640Z,2.33
2022-09-16T21:57:58.667Z,2.13
2022-09-16T22:01:17.452Z,2.10
2022-09-16T22:04:22.148Z,2.67
2022-09-16T22:07:23.985Z,2.43
2022-09-16T22:10:26.367Z,2.10
2022-09-16T22:13:31.847Z,2.60
2022-09-16T22:16:37.406Z,2.47
2022-09-16T22:19:39.192Z,2.87
2022-09-16T22:22:41.242Z,2.37
2022-09-16T22:25:43.412Z,2.07
2022-09-16T22:28:45.459Z,2.27
2022-09-16T22:31:47.600Z,2.23
2022-09-16T22:34:50.052Z,2.10
2022-09-16T22:37:52.687Z,2.37
2022-09-16T22:40:59.947Z,2.10
2022-09-16T22:44:02.607Z,2.10
2022-09-16T22:47:05.135Z,2.37
2022-09-16T22:50:07.574Z,2.60
2022-09-16T22:53:09.533Z,2.83
2022-09-16T22:56:19.044Z,2.20
2022-09-16T22:59:21.246Z,2.50
2022-09-16T23:02:23.639Z,2.20
2022-09-16T23:05:25.761Z,2.13
2022-09-16T23:08:29.293Z,2.43
2022-09-16T23:11:33.102Z,2.30
2022-09-16T23:14:35.174Z,2.23
2022-09-16T23:17:37.158Z,2.30
2022-09-16T23:20:39.087Z,2.10
2022-09-16T23:23:43.270Z,2.10
2022-09-16T23:26:45.947Z,2.23
2022-09-16T23:29:48.159Z,2.10
2022-09-16T23:32:50.049Z,2.10
2022-09-16T23:35:52.083Z,2.40
2022-09-16T23:38:55.070Z,2.43
2022-09-16T23:41:57.048Z,1.87
2022-09-16T23:44:59.026Z,2.10
2022-09-16T23:48:01.213Z,2.07
2022-09-16T23:51:04.122Z,2.37
2022-09-16T23:54:06.487Z,2.47
2022-09-16T23:57:08.366Z,2.03
